Terminal Aerodrome Forecast
Issued by NWS Portland, ME

Home | Current Version | Previous Version | Text Only | Print | Product List | Glossary On
Versions: 1 2 3 4 5 6 7 8 9 10 11 12 13 14 15 16 17 18 19 20 21 22
349
FTUS41 KGYX 012323
TAFCON
TAF
KCON 012323Z 0200/0224 13004KT P6SM -SHRA SCT015 OVC045
      TEMPO 0200/0204 4SM -SHRA BR OVC015
     FM020400 VRB03KT 4SM -DZ BR BKN008 OVC012
     FM021300 07005KT 3SM -RADZ BR OVC005
     FM021700 07005KT 2SM RA BR OVC007=

USA.gov is the U.S. government's official web portal to all federal, state and local government web resources and services.